createdAt,value
2018-04-23T00:00:31.202Z,7.33
2018-04-23T00:02:58.770Z,7.63
2018-04-23T00:05:26.185Z,8.00
2018-04-23T00:07:54.386Z,9.33
2018-04-23T00:10:22.055Z,8.20
2018-04-23T00:12:49.482Z,8.27
2018-04-23T00:15:17.674Z,9.63
2018-04-23T00:17:45.190Z,10.67
2018-04-23T00:20:12.605Z,8.07
2018-04-23T00:22:40.038Z,7.80
2018-04-23T00:25:08.259Z,8.13
2018-04-23T00:27:36.458Z,7.57
2018-04-23T00:30:03.935Z,7.63
2018-04-23T00:32:31.357Z,8.00
2018-04-23T00:34:58.810Z,8.57
2018-04-23T00:37:26.242Z,8.10
2018-04-23T00:39:53.671Z,7.87
2018-04-23T00:42:21.875Z,7.70
2018-04-23T00:44:49.326Z,7.30
2018-04-23T00:47:16.747Z,7.73
2018-04-23T00:49:44.475Z,8.00
2018-04-23T00:52:11.914Z,7.33
2018-04-23T00:54:39.334Z,7.87
2018-04-23T00:57:06.782Z,7.80
2018-04-23T00:59:34.205Z,7.43
2018-04-23T01:02:01.632Z,8.00
2018-04-23T01:04:29.059Z,8.63
2018-04-23T01:06:56.497Z,8.43
2018-04-23T01:09:23.929Z,9.13
2018-04-23T01:11:51.363Z,8.87
2018-04-23T01:14:18.801Z,9.37
2018-04-23T01:16:47.015Z,8.83
2018-04-23T01:19:14.447Z,9.17
2018-04-23T01:21:42.638Z,8.27
2018-04-23T01:24:10.066Z,8.73
2018-04-23T01:26:38.570Z,8.07
2018-04-23T01:29:06.007Z,7.70
2018-04-23T01:31:34.228Z,8.67
2018-04-23T01:34:01.784Z,9.00
2018-04-23T01:36:29.230Z,8.77
2018-04-23T01:38:56.657Z,9.63
2018-04-23T01:41:24.874Z,8.27
2018-04-23T01:43:52.329Z,8.20
2018-04-23T01:46:19.763Z,8.77
2018-04-23T01:48:47.197Z,8.20
2018-04-23T01:51:14.655Z,8.10
2018-04-23T01:53:42.067Z,8.43
2018-04-23T01:56:09.516Z,8.90
2018-04-23T01:58:36.942Z,9.23
2018-04-23T02:01:05.149Z,7.43
2018-04-23T02:03:32.578Z,6.93
2018-04-23T02:06:00.786Z,8.00
2018-04-23T02:08:28.214Z,8.13
2018-04-23T02:10:56.420Z,8.60
2018-04-23T02:13:23.850Z,8.17
2018-04-23T02:15:51.283Z,8.07
2018-04-23T02:18:18.714Z,8.87
2018-04-23T02:20:46.553Z,8.53
2018-04-23T02:23:13.977Z,8.17
2018-04-23T02:25:42.199Z,8.63
2018-04-23T02:28:09.622Z,8.77
2018-04-23T02:30:37.070Z,8.73
2018-04-23T02:33:05.290Z,8.17
2018-04-23T02:35:32.714Z,9.70
2018-04-23T02:38:00.146Z,8.47
2018-04-23T02:40:28.355Z,7.63
2018-04-23T02:42:55.787Z,8.03
2018-04-23T02:45:23.975Z,9.03
2018-04-23T02:47:52.189Z,8.07
2018-04-23T02:50:19.618Z,9.53
2018-04-23T02:52:47.056Z,9.13
2018-04-23T02:55:15.286Z,8.30
2018-04-23T02:57:42.711Z,9.90
2018-04-23T03:00:10.361Z,8.83
2018-04-23T03:02:37.872Z,8.80
2018-04-23T03:05:05.218Z,9.57
2018-04-23T03:07:32.672Z,9.23
2018-04-23T03:10:00.088Z,9.37
2018-04-23T03:12:27.531Z,9.00
2018-04-23T03:14:55.722Z,8.53
2018-04-23T03:17:23.922Z,8.40
2018-04-23T03:19:51.355Z,8.80
2018-04-23T03:22:18.802Z,8.23
2018-04-23T03:24:46.996Z,8.30
2018-04-23T03:27:14.435Z,8.40
2018-04-23T03:29:41.864Z,8.57
2018-04-23T03:32:09.303Z,8.80
2018-04-23T03:34:36.737Z,8.77
2018-04-23T03:37:04.480Z,8.67
2018-04-23T03:39:31.850Z,9.30
2018-04-23T03:41:59.279Z,8.37
2018-04-23T03:44:27.565Z,8.27
2018-04-23T03:46:54.976Z,9.03
2018-04-23T03:49:22.389Z,10.13
2018-04-23T03:51:49.831Z,9.77
2018-04-23T03:54:18.023Z,10.97
2018-04-23T03:56:45.477Z,9.80
2018-04-23T03:59:13.673Z,9.47
2018-04-23T04:01:41.103Z,8.87
2018-04-23T04:04:09.316Z,9.83
2018-04-23T04:06:36.781Z,10.40
2018-04-23T04:09:04.243Z,9.63
2018-04-23T04:11:31.686Z,9.43
2018-04-23T04:14:10.931Z,9.53
2018-04-23T04:16:50.948Z,9.37
2018-04-23T04:19:18.389Z,9.43
2018-04-23T04:21:46.590Z,8.73
2018-04-23T04:24:14.047Z,9.00
2018-04-23T04:26:41.482Z,10.87
2018-04-23T04:29:09.686Z,10.07
2018-04-23T04:31:37.122Z,9.23
2018-04-23T04:34:04.570Z,9.20
2018-04-23T04:36:32.006Z,9.47
2018-04-23T04:38:59.432Z,8.90
2018-04-23T04:41:26.875Z,9.63
2018-04-23T04:43:54.326Z,9.63
2018-04-23T04:46:22.512Z,10.50
2018-04-23T04:48:49.948Z,8.93
2018-04-23T04:51:17.395Z,9.97
2018-04-23T04:53:44.820Z,9.40
2018-04-23T04:56:12.267Z,9.37
2018-04-23T04:58:39.688Z,9.47
2018-04-23T05:01:07.133Z,11.27
2018-04-23T05:03:35.326Z,10.10
2018-04-23T05:06:02.770Z,9.50
2018-04-23T05:08:30.204Z,9.07
2018-04-23T05:10:57.667Z,9.43
2018-04-23T05:13:25.895Z,8.87
2018-04-23T05:15:53.358Z,9.33
2018-04-23T05:18:20.779Z,8.77
2018-04-23T05:20:48.223Z,9.30
2018-04-23T05:23:16.456Z,9.53
2018-04-23T05:25:43.879Z,8.77
2018-04-23T05:28:11.320Z,8.57
2018-04-23T05:30:39.514Z,9.23
2018-04-23T05:33:06.958Z,8.77
2018-04-23T05:35:34.410Z,11.50
2018-04-23T05:38:02.610Z,11.40
2018-04-23T05:40:30.154Z,9.17
2018-04-23T05:42:57.579Z,10.90
2018-04-23T05:45:25.010Z,9.67
2018-04-23T05:47:52.463Z,10.00
2018-04-23T05:50:19.885Z,10.10
2018-04-23T05:52:47.334Z,11.50
2018-04-23T05:55:15.563Z,8.50
2018-04-23T05:57:43.002Z,8.57
2018-04-23T06:00:10.435Z,8.07
2018-04-23T06:02:37.865Z,8.73
2018-04-23T06:05:06.126Z,7.90
2018-04-23T06:07:33.506Z,8.27
2018-04-23T06:10:01.715Z,9.37
2018-04-23T06:12:29.144Z,8.90
2018-04-23T06:14:57.342Z,7.73
2018-04-23T06:17:25.539Z,9.60
2018-04-23T06:19:52.991Z,9.90
2018-04-23T06:22:20.417Z,10.90
2018-04-23T06:24:47.847Z,14.17
2018-04-23T06:27:15.311Z,8.87
2018-04-23T06:29:42.719Z,8.77
2018-04-23T06:32:10.164Z,10.23
2018-04-23T06:34:37.619Z,8.37
2018-04-23T06:37:05.062Z,9.97
2018-04-23T06:39:32.490Z,8.50
2018-04-23T06:41:59.934Z,9.80
2018-04-23T06:44:27.357Z,8.13
2018-04-23T06:46:54.782Z,8.60
2018-04-23T06:49:22.993Z,10.17
2018-04-23T06:51:50.415Z,9.60
2018-04-23T06:54:18.699Z,10.43
2018-04-23T06:56:46.889Z,10.30
2018-04-23T06:59:14.357Z,10.63
2018-04-23T07:01:41.782Z,9.80
2018-04-23T07:04:10.002Z,10.20
2018-04-23T07:06:37.460Z,9.63
2018-04-23T07:09:04.903Z,13.03
2018-04-23T07:11:32.344Z,9.23
2018-04-23T07:14:00.681Z,18.57
2018-04-23T07:16:28.133Z,8.83
2018-04-23T07:18:55.569Z,11.10
2018-04-23T07:21:22.998Z,12.20
2018-04-23T07:23:50.435Z,14.70
2018-04-23T07:26:18.663Z,8.53
2018-04-23T07:28:46.082Z,9.97
2018-04-23T07:31:13.507Z,7.20
2018-04-23T07:33:40.953Z,10.37
2018-04-23T07:36:08.475Z,11.07
2018-04-23T07:38:35.886Z,6.93
2018-04-23T07:41:04.107Z,7.23
2018-04-23T07:43:31.525Z,7.10
2018-04-23T07:45:59.718Z,8.97
2018-04-23T07:48:27.142Z,9.90
2018-04-23T07:50:54.572Z,9.23
2018-04-23T07:53:22.014Z,8.87
2018-04-23T07:55:49.485Z,8.57
2018-04-23T07:58:17.689Z,9.13
2018-04-23T08:00:45.117Z,7.03
2018-04-23T08:03:12.567Z,8.60
2018-04-23T08:05:39.999Z,8.43
2018-04-23T08:08:07.442Z,6.80
2018-04-23T08:10:34.883Z,8.20
2018-04-23T08:13:02.298Z,6.53
2018-04-23T08:15:30.571Z,12.07
2018-04-23T08:17:57.974Z,7.57
2018-04-23T08:20:25.426Z,9.97
2018-04-23T08:22:52.865Z,9.63
2018-04-23T08:25:20.297Z,11.87
2018-04-23T08:27:47.739Z,8.83
2018-04-23T08:30:15.161Z,13.43
2018-04-23T08:32:42.606Z,13.43
2018-04-23T08:35:10.037Z,14.10
2018-04-23T08:37:37.478Z,16.07
2018-04-23T08:40:04.907Z,12.37
2018-04-23T08:42:33.142Z,10.13
2018-04-23T08:45:00.595Z,14.20
2018-04-23T08:47:28.070Z,16.73
2018-04-23T08:49:55.474Z,11.27
2018-04-23T08:52:23.677Z,11.03
2018-04-23T08:54:51.117Z,13.37
2018-04-23T08:57:18.538Z,13.30
2018-04-23T08:59:46.777Z,11.37
2018-04-23T09:02:14.979Z,8.97
2018-04-23T09:04:42.446Z,10.03
2018-04-23T09:07:09.894Z,11.00
2018-04-23T09:09:37.318Z,8.97
2018-04-23T09:12:05.538Z,14.13
2018-04-23T09:14:33.734Z,10.93
2018-04-23T09:17:01.168Z,8.33
2018-04-23T09:19:28.634Z,8.90
2018-04-23T09:21:56.813Z,9.43
2018-04-23T09:24:25.042Z,8.87
2018-04-23T09:26:52.480Z,12.37
2018-04-23T09:29:19.902Z,10.40
2018-04-23T09:31:48.114Z,6.90
2018-04-23T09:34:15.566Z,9.00
2018-04-23T09:36:43.758Z,12.30
2018-04-23T09:39:11.219Z,9.07
2018-04-23T09:41:38.665Z,8.53
2018-04-23T09:44:06.100Z,6.83
2018-04-23T09:46:33.531Z,7.67
2018-04-23T09:49:00.972Z,6.80
2018-04-23T09:51:28.466Z,7.37
2018-04-23T09:53:55.886Z,6.80
2018-04-23T09:56:23.307Z,7.93
2018-04-23T09:58:50.752Z,7.83
2018-04-23T10:01:20.105Z,7.73
2018-04-23T10:03:50.465Z,10.03
2018-04-23T10:06:17.894Z,10.50
2018-04-23T10:08:45.319Z,8.53
2018-04-23T10:11:12.791Z,8.50
2018-04-23T10:13:40.206Z,13.23
2018-04-23T10:16:07.647Z,13.23
2018-04-23T10:18:35.853Z,9.67
2018-04-23T10:21:03.330Z,9.37
2018-04-23T10:23:30.721Z,12.87
2018-04-23T10:25:58.142Z,9.63
2018-04-23T10:28:25.588Z,11.57
2018-04-23T10:30:53.007Z,9.03
2018-04-23T10:33:20.454Z,8.93
2018-04-23T10:35:47.889Z,8.30
2018-04-23T10:38:15.310Z,11.10
2018-04-23T10:40:42.768Z,12.20
2018-04-23T10:43:10.204Z,8.73
2018-04-23T10:45:37.622Z,9.33
2018-04-23T10:48:05.063Z,11.17
2018-04-23T10:50:32.491Z,8.70
2018-04-23T10:52:59.942Z,10.60
2018-04-23T10:55:27.382Z,9.90
2018-04-23T10:57:55.578Z,12.17
2018-04-23T11:00:23.030Z,6.93
2018-04-23T11:02:50.450Z,8.23
2018-04-23T11:05:17.899Z,9.80
2018-04-23T11:07:45.340Z,9.17
2018-04-23T11:10:12.758Z,9.00
2018-04-23T11:12:40.198Z,8.87
2018-04-23T11:15:08.431Z,8.40
2018-04-23T11:17:35.862Z,11.13
2018-04-23T11:20:03.300Z,6.87
2018-04-23T11:22:37.338Z,8.93
2018-04-23T11:25:04.776Z,10.03
2018-04-23T11:27:32.977Z,9.53
2018-04-23T11:30:00.405Z,9.40
2018-04-23T11:32:27.878Z,9.40
2018-04-23T11:34:55.249Z,8.03
2018-04-23T11:37:22.693Z,10.00
2018-04-23T11:39:50.142Z,10.23
2018-04-23T11:42:17.596Z,9.63
2018-04-23T11:44:45.034Z,9.67
2018-04-23T11:47:13.246Z,10.57
2018-04-23T11:49:40.677Z,11.60
2018-04-23T11:52:08.153Z,9.27
2018-04-23T11:54:35.577Z,9.13
2018-04-23T11:57:03.026Z,11.03
2018-04-23T11:59:30.445Z,10.60
2018-04-23T12:01:57.881Z,11.20
2018-04-23T12:04:25.412Z,15.97
2018-04-23T12:06:53.526Z,13.67
2018-04-23T12:09:21.726Z,13.73
2018-04-23T12:11:49.174Z,13.70
2018-04-23T12:14:16.619Z,13.80
2018-04-23T12:16:44.120Z,15.50
2018-04-23T12:19:11.570Z,11.23
2018-04-23T12:21:39.021Z,12.13
2018-04-23T12:24:06.430Z,12.63
2018-04-23T12:26:33.867Z,16.20
2018-04-23T12:29:01.347Z,15.07
2018-04-23T12:31:28.786Z,14.03
2018-04-23T12:33:56.986Z,13.40
2018-04-23T12:36:24.426Z,13.13
2018-04-23T12:38:52.622Z,14.00
2018-04-23T12:41:20.075Z,13.63
2018-04-23T12:43:47.502Z,16.90
2018-04-23T12:46:15.784Z,13.07
2018-04-23T12:48:43.157Z,16.00
2018-04-23T12:51:10.583Z,13.87
2018-04-23T12:53:38.022Z,14.00
2018-04-23T12:56:05.458Z,15.53
2018-04-23T12:58:32.906Z,14.27
2018-04-23T13:01:00.346Z,15.40
2018-04-23T13:03:27.773Z,17.10
2018-04-23T13:05:55.209Z,12.73
2018-04-23T13:08:22.643Z,14.47
2018-04-23T13:10:50.103Z,14.77
2018-04-23T13:13:17.538Z,16.20
2018-04-23T13:15:44.974Z,13.77
2018-04-23T13:18:12.398Z,13.20
2018-04-23T13:20:39.826Z,12.43
2018-04-23T13:23:07.275Z,11.27
2018-04-23T13:25:34.718Z,13.10
2018-04-23T13:28:02.149Z,13.53
2018-04-23T13:30:29.588Z,10.20
2018-04-23T13:32:57.010Z,12.50
2018-04-23T13:35:24.458Z,15.50
2018-04-23T13:37:51.911Z,10.47
2018-04-23T13:40:19.391Z,11.83
2018-04-23T13:42:46.834Z,12.30
2018-04-23T13:45:14.279Z,13.93
2018-04-23T13:47:41.722Z,15.37
2018-04-23T13:50:09.933Z,16.33
2018-04-23T13:52:37.374Z,13.03
2018-04-23T13:55:04.804Z,12.00
2018-04-23T13:57:32.287Z,12.93
2018-04-23T14:00:00.478Z,12.47
2018-04-23T14:02:28.961Z,14.27
2018-04-23T14:04:56.403Z,14.27
2018-04-23T14:07:24.594Z,10.17
2018-04-23T14:09:52.041Z,13.97
2018-04-23T14:12:19.504Z,11.70
2018-04-23T14:14:46.914Z,9.27
2018-04-23T14:17:14.346Z,13.27
2018-04-23T14:19:41.798Z,13.07
2018-04-23T14:22:09.246Z,10.77
2018-04-23T14:24:36.702Z,13.77
2018-04-23T14:27:04.170Z,10.50
2018-04-23T14:29:31.603Z,13.50
2018-04-23T14:31:59.061Z,10.77
2018-04-23T14:34:26.488Z,11.73
2018-04-23T14:36:53.920Z,12.00
2018-04-23T14:39:21.386Z,11.00
2018-04-23T14:41:48.834Z,9.70
2018-04-23T14:44:16.254Z,9.50
2018-04-23T14:46:43.688Z,8.10
2018-04-23T14:49:11.897Z,11.00
2018-04-23T14:51:39.374Z,9.93
2018-04-23T14:54:06.813Z,11.10
2018-04-23T14:56:34.254Z,10.87
2018-04-23T14:59:01.694Z,9.40
2018-04-23T15:01:30.726Z,11.23
2018-04-23T15:03:58.215Z,11.20
2018-04-23T15:06:25.603Z,11.33
2018-04-23T15:08:53.810Z,9.87
2018-04-23T15:11:21.251Z,8.93
2018-04-23T15:13:48.690Z,9.37
2018-04-23T15:16:16.142Z,11.67
2018-04-23T15:18:44.346Z,9.07
2018-04-23T15:21:11.775Z,12.50
2018-04-23T15:23:39.980Z,8.63
2018-04-23T15:26:07.420Z,8.83
2018-04-23T15:28:35.632Z,14.67
2018-04-23T15:31:03.065Z,11.07
2018-04-23T15:33:30.505Z,11.60
2018-04-23T15:35:58.781Z,9.87
2018-04-23T15:38:26.186Z,11.27
2018-04-23T15:40:53.630Z,11.57
2018-04-23T15:43:21.835Z,9.27
2018-04-23T15:45:49.282Z,11.17
2018-04-23T15:48:16.715Z,10.30
2018-04-23T15:50:44.137Z,8.33
2018-04-23T15:53:12.362Z,10.40
2018-04-23T15:55:39.801Z,8.67
2018-04-23T15:58:07.218Z,8.77
2018-04-23T16:00:34.653Z,11.40
2018-04-23T16:03:02.102Z,10.93
2018-04-23T16:05:29.563Z,11.13
2018-04-23T16:07:57.005Z,14.73
2018-04-23T16:10:24.494Z,10.93
2018-04-23T16:12:51.930Z,15.90
2018-04-23T16:15:19.381Z,13.97
2018-04-23T16:17:46.810Z,14.83
2018-04-23T16:20:14.246Z,11.90
2018-04-23T16:22:41.694Z,10.50
2018-04-23T16:25:09.137Z,9.73
2018-04-23T16:27:36.594Z,11.13
2018-04-23T16:30:04.075Z,14.70
2018-04-23T16:32:31.547Z,10.97
2018-04-23T16:34:59.075Z,10.73
2018-04-23T16:37:26.522Z,8.17
2018-04-23T16:39:54.033Z,10.00
2018-04-23T16:42:21.654Z,10.83
2018-04-23T16:44:50.543Z,11.37
2018-04-23T16:47:17.049Z,12.97
2018-04-23T16:49:44.491Z,13.60
2018-04-23T16:52:11.962Z,10.53
2018-04-23T16:54:39.419Z,11.40
2018-04-23T16:57:06.880Z,11.20
2018-04-23T16:59:34.329Z,10.23
2018-04-23T17:02:01.765Z,14.40
2018-04-23T17:04:29.963Z,13.20
2018-04-23T17:06:57.402Z,11.83
2018-04-23T17:09:25.881Z,15.17
2018-04-23T17:11:53.332Z,10.90
2018-04-23T17:14:21.528Z,11.60
2018-04-23T17:16:48.985Z,14.97
2018-04-23T17:19:16.450Z,13.93
2018-04-23T17:21:44.623Z,10.50
2018-04-23T17:24:12.074Z,11.97
2018-04-23T17:26:39.496Z,15.67
2018-04-23T17:29:07.710Z,12.47
2018-04-23T17:31:35.129Z,12.90
2018-04-23T17:34:03.336Z,12.37
2018-04-23T17:36:30.776Z,8.63
2018-04-23T17:38:58.973Z,10.43
2018-04-23T17:41:26.413Z,12.70
2018-04-23T17:43:53.848Z,9.90
2018-04-23T17:46:21.285Z,8.87
2018-04-23T17:48:48.746Z,12.37
2018-04-23T17:51:17.032Z,11.13
2018-04-23T17:53:44.466Z,11.00
2018-04-23T17:56:11.918Z,12.60
2018-04-23T17:58:39.430Z,10.80
2018-04-23T18:01:06.857Z,11.30
2018-04-23T18:03:34.331Z,9.23
2018-04-23T18:06:01.738Z,11.87
2018-04-23T18:08:29.202Z,10.63
2018-04-23T18:10:56.661Z,10.87
2018-04-23T18:13:24.104Z,10.50
2018-04-23T18:15:51.670Z,10.23
2018-04-23T18:18:19.103Z,14.63
2018-04-23T18:20:47.312Z,13.73
2018-04-23T18:23:14.749Z,12.33
2018-04-23T18:25:42.677Z,12.27
2018-04-23T18:28:10.142Z,11.80
2018-04-23T18:30:37.572Z,12.43
2018-04-23T18:33:05.261Z,10.40
2018-04-23T18:35:32.683Z,15.83
2018-04-23T18:38:00.110Z,13.67
2018-04-23T18:40:27.549Z,11.13
2018-04-23T18:42:55.762Z,18.60
2018-04-23T18:45:23.173Z,12.20
2018-04-23T18:47:51.403Z,10.33
2018-04-23T18:50:18.849Z,12.23
2018-04-23T18:52:46.310Z,13.30
2018-04-23T18:55:13.749Z,11.70
2018-04-23T18:57:41.177Z,12.00
2018-04-23T19:00:08.608Z,12.30
2018-04-23T19:02:36.049Z,11.07
2018-04-23T19:05:03.493Z,11.00
2018-04-23T19:07:30.910Z,9.90
2018-04-23T19:09:59.262Z,13.70
2018-04-23T19:12:26.706Z,11.73
2018-04-23T19:14:54.146Z,10.17
2018-04-23T19:17:21.581Z,13.43
2018-04-23T19:19:49.043Z,13.87
2018-04-23T19:22:17.242Z,11.97
2018-04-23T19:24:44.706Z,14.10
2018-04-23T19:27:12.239Z,12.53
2018-04-23T19:29:39.739Z,11.67
2018-04-23T19:32:07.490Z,12.17
2018-04-23T19:34:34.937Z,15.03
2018-04-23T19:37:02.383Z,11.13
2018-04-23T19:39:29.847Z,16.07
2018-04-23T19:41:57.295Z,17.93
2018-04-23T19:44:25.136Z,13.47
2018-04-23T19:46:53.361Z,14.13
2018-04-23T19:49:20.778Z,16.03
2018-04-23T19:51:48.246Z,17.07
2018-04-23T19:54:15.691Z,15.53
2018-04-23T19:56:43.143Z,17.67
2018-04-23T19:59:11.358Z,16.67
2018-04-23T20:01:39.842Z,12.37
2018-04-23T20:04:07.843Z,14.20
2018-04-23T20:06:36.274Z,15.70
2018-04-23T20:09:03.745Z,13.03
2018-04-23T20:11:31.211Z,14.47
2018-04-23T20:13:58.642Z,14.30
2018-04-23T20:16:26.091Z,17.33
2018-04-23T20:18:54.294Z,12.50
2018-04-23T20:21:21.812Z,10.87
2018-04-23T20:23:49.213Z,13.00
2018-04-23T20:26:16.671Z,13.03
2018-04-23T20:28:44.158Z,11.37
2018-04-23T20:31:11.582Z,14.33
2018-04-23T20:33:39.024Z,10.93
2018-04-23T20:36:06.450Z,11.27
2018-04-23T20:38:33.897Z,12.23
2018-04-23T20:41:01.333Z,13.10
2018-04-23T20:43:28.771Z,13.77
2018-04-23T20:45:56.220Z,15.13
2018-04-23T20:48:23.650Z,13.07
2018-04-23T20:50:51.105Z,12.87
2018-04-23T20:53:19.254Z,12.07
2018-04-23T20:55:46.693Z,12.13
2018-04-23T20:58:14.158Z,13.10
2018-04-23T21:00:41.739Z,9.67
2018-04-23T21:03:09.197Z,13.27
2018-04-23T21:05:36.608Z,12.77
2018-04-23T21:08:04.048Z,12.37
2018-04-23T21:10:31.487Z,12.60
2018-04-23T21:12:58.931Z,15.40
2018-04-23T21:15:26.369Z,13.17
2018-04-23T21:17:53.804Z,13.53
2018-04-23T21:20:22.010Z,11.57
2018-04-23T21:22:49.443Z,9.93
2018-04-23T21:25:16.897Z,15.60
2018-04-23T21:27:44.344Z,12.27
2018-04-23T21:30:11.767Z,11.17
2018-04-23T21:32:39.964Z,10.73
2018-04-23T21:35:07.412Z,13.10
2018-04-23T21:37:34.893Z,11.90
2018-04-23T21:40:02.296Z,11.27
2018-04-23T21:42:29.721Z,8.93
2018-04-23T21:44:57.150Z,8.90
2018-04-23T21:47:24.582Z,9.53
2018-04-23T21:49:52.786Z,10.50
2018-04-23T21:52:20.206Z,9.87
2018-04-23T21:54:47.637Z,7.27
2018-04-23T21:57:15.069Z,9.97
2018-04-23T21:59:42.508Z,9.97
2018-04-23T22:02:09.949Z,7.90
2018-04-23T22:04:38.145Z,10.23
2018-04-23T22:07:05.569Z,7.93
2018-04-23T22:09:33.001Z,7.47
2018-04-23T22:12:00.442Z,10.73
2018-04-23T22:14:27.874Z,7.63
2018-04-23T22:16:55.322Z,9.07
2018-04-23T22:19:23.514Z,10.83
2018-04-23T22:21:50.945Z,9.13
2018-04-23T22:24:19.155Z,8.47
2018-04-23T22:26:46.590Z,10.63
2018-04-23T22:29:14.026Z,8.90
2018-04-23T22:31:41.470Z,7.40
2018-04-23T22:34:08.916Z,9.67
2018-04-23T22:36:36.359Z,10.30
2018-04-23T22:39:03.787Z,12.93
2018-04-23T22:41:31.237Z,11.30
2018-04-23T22:43:59.421Z,10.00
2018-04-23T22:46:26.845Z,9.77
2018-04-23T22:48:54.273Z,9.17
2018-04-23T22:51:21.711Z,7.73
2018-04-23T22:53:49.920Z,8.40
2018-04-23T22:56:17.350Z,9.90
2018-04-23T22:58:44.794Z,12.20
2018-04-23T23:01:12.230Z,12.90
2018-04-23T23:03:39.679Z,10.97
2018-04-23T23:06:07.109Z,12.07
2018-04-23T23:08:34.550Z,9.73
2018-04-23T23:11:01.979Z,10.10
2018-04-23T23:13:29.416Z,9.90
2018-04-23T23:15:57.607Z,11.67
2018-04-23T23:18:25.043Z,11.83
2018-04-23T23:20:53.254Z,8.60
2018-04-23T23:23:20.698Z,10.70
2018-04-23T23:25:48.129Z,10.77
2018-04-23T23:28:16.335Z,12.53
2018-04-23T23:30:43.761Z,8.90
2018-04-23T23:33:11.947Z,8.80
2018-04-23T23:35:39.394Z,8.83
2018-04-23T23:38:07.590Z,8.13
2018-04-23T23:40:35.022Z,8.33
2018-04-23T23:43:03.219Z,9.03
2018-04-23T23:45:30.673Z,10.20
2018-04-23T23:47:58.850Z,9.10
2018-04-23T23:50:26.286Z,8.33
2018-04-23T23:52:54.473Z,12.00
2018-04-23T23:55:22.657Z,10.70
2018-04-23T23:57:50.090Z,11.07
